地図

経路データ

SID SEASON NUMBER BASIN SUBBASIN NAME ISO_TIME NATURE LAT LON WMO_WIND WMO_PRES WMO_AGENCY TRACK_TYPE DIST2LAND LANDFALL IFLAG USA_AGENCY USA_ATCF_ID USA_LAT USA_LON USA_RECORD USA_STATUS USA_WIND USA_PRES USA_SSHS USA_R34_NE USA_R34_SE USA_R34_SW USA_R34_NW USA_R50_NE USA_R50_SE USA_R50_SW USA_R50_NW USA_R64_NE USA_R64_SE USA_R64_SW USA_R64_NW USA_POCI USA_ROCI USA_RMW USA_EYE TOKYO_LAT TOKYO_LON TOKYO_GRADE TOKYO_WIND TOKYO_PRES TOKYO_R50_DIR TOKYO_R50_LONG TOKYO_R50_SHORT TOKYO_R30_DIR TOKYO_R30_LONG TOKYO_R30_SHORT TOKYO_LAND CMA_LAT CMA_LON CMA_CAT CMA_WIND CMA_PRES HKO_LAT HKO_LON HKO_CAT HKO_WIND HKO_PRES NEWDELHI_LAT NEWDELHI_LON NEWDELHI_GRADE NEWDELHI_WIND NEWDELHI_PRES NEWDELHI_CI NEWDELHI_DP NEWDELHI_POCI REUNION_LAT REUNION_LON REUNION_TYPE REUNION_WIND REUNION_PRES REUNION_TNUM REUNION_CI REUNION_RMW REUNION_R34_NE REUNION_R34_SE REUNION_R34_SW REUNION_R34_NW REUNION_R50_NE REUNION_R50_SE REUNION_R50_SW REUNION_R50_NW REUNION_R64_NE REUNION_R64_SE REUNION_R64_SW REUNION_R64_NW BOM_LAT BOM_LON BOM_TYPE BOM_WIND BOM_PRES BOM_TNUM BOM_CI BOM_RMW BOM_R34_NE BOM_R34_SE BOM_R34_SW BOM_R34_NW BOM_R50_NE BOM_R50_SE BOM_R50_SW BOM_R50_NW BOM_R64_NE BOM_R64_SE BOM_R64_SW BOM_R64_NW BOM_ROCI BOM_POCI BOM_EYE BOM_POS_METHOD BOM_PRES_METHOD NADI_LAT NADI_LON NADI_CAT NADI_WIND NADI_PRES WELLINGTON_LAT WELLINGTON_LON WELLINGTON_WIND WELLINGTON_PRES DS824_LAT DS824_LON DS824_STAGE DS824_WIND DS824_PRES TD9636_LAT TD9636_LON TD9636_STAGE TD9636_WIND TD9636_PRES TD9635_LAT TD9635_LON TD9635_WIND TD9635_PRES TD9635_ROCI NEUMANN_LAT NEUMANN_LON NEUMANN_CLASS NEUMANN_WIND NEUMANN_PRES MLC_LAT MLC_LON MLC_CLASS MLC_WIND MLC_PRES USA_GUST BOM_GUST BOM_GUST_PER REUNION_GUST REUNION_GUST_PER USA_SEAHGT USA_SEARAD_NE USA_SEARAD_SE USA_SEARAD_SW USA_SEARAD_NW STORM_SPEED STORM_DIR
1978016S10066 1978 3 SI MM FLEUR 1978-01-16 06:00:00 TS -10.0600 65.8600 20 1003 reunion main 1423 1375 O____O___OO_O_ jtwc_sh SH131978 -10.1000 65.9000 -1 -10.0000 65.8000 2 20 1003 1.50000 1.50000 -10.1000 65.9000 TC 25 -10.1000 65.9000 1 -10.0000 65.8000 TC 25 1003 12 260
1978016S10066 1978 3 SI MM FLEUR 1978-01-16 09:00:00 TS -10.1594 65.2632 main 1375 1328 P____P___PP_P_ SH131978 -10.1953 65.2301 -1 -10.1052 65.2874 2 -10.1953 65.2301 TC 25 -10.1962 65.2812 1 -10.1052 65.2874 TC 30 12 258
1978016S10066 1978 3 SI MM FLEUR 1978-01-16 12:00:00 TS -10.3007 64.6940 reunion main 1328 1280 O____O___OP_O_ jtwc_sh SH131978 -10.3000 64.6000 -1 -10.3000 64.8000 99 9.90000 -10.3000 64.6000 TC 25 -10.3034 64.6698 1 -10.3000 64.8000 TC 35 11 252
1978016S10066 1978 3 SI MM FLEUR 1978-01-16 15:00:00 TS -10.5117 64.1737 main 1280 1232 P____P___PP_P_ SH131978 -10.4273 64.0349 -1 -10.6350 64.3626 99 -10.4273 64.0349 TC 25 -10.4339 64.0735 1 -10.6350 64.3626 TC 35 11 245
1978016S10066 1978 3 SI MM FLEUR 1978-01-16 18:00:00 TS -10.7600 63.7000 reunion main 1223 1181 O____O___OO_O_ jtwc_sh SH131978 -10.6000 63.5000 -1 -11.0000 64.0000 99 9.90000 -10.6000 63.5000 TC 25 -10.6000 63.5000 1 -11.0000 64.0000 TC 35 10 241
1978016S10066 1978 3 SI MM FLEUR 1978-01-16 21:00:00 TS -11.0046 63.2507 main 1181 1140 P____P___PP_P_ SH131978 -10.8425 62.9201 -1 -11.2649 63.7274 99 -10.8425 62.9201 TC 25 -10.8083 62.9585 1 -11.2649 63.7274 TC 37 10 240
1978016S10066 1978 3 SI MM FLEUR 1978-01-17 00:00:00 TS -11.2485 62.8531 reunion main 1140 1090 O____O___OP_O_ jtwc_sh SH131978 -11.1000 62.4000 -1 -11.5000 63.5000 99 9.90000 -11.1000 62.4000 TC 25 -11.0424 62.4655 1 -11.5000 63.5000 TC 40 9 237
1978016S10066 1978 3 SI MM FLEUR 1978-01-17 03:00:00 TS -11.4760 62.5009 main 1090 1055 P____P___PP_P_ SH131978 -11.3149 61.9974 -1 -11.7350 63.2350 99 -11.3149 61.9974 TC 30 -11.2803 62.0397 1 -11.7350 63.2350 TC 35 8 234
1978016S10066 1978 3 SI MM FLEUR 1978-01-17 06:00:00 TS -11.7000 62.2200 24 1000 reunion main 1055 1026 O____O___OO_O_ jtwc_sh SH131978 -11.5000 61.7000 -1 -12.0000 63.0000 2 24 1000 2.00000 2.00000 -11.5000 61.7000 TC 35 -11.5000 61.7000 2 -12.0000 63.0000 TC 30 1000 7 225
1978016S10066 1978 3 SI MM FLEUR 1978-01-17 09:00:00 TS -11.9424 62.0220 main 1026 991 P____P___PP_P_ SH131978 -11.6575 61.4624 -1 -12.3649 62.8649 2 -11.6575 61.4624 TC 35 -11.6671 61.4553 2 -12.3649 62.8649 TC 37 6 217
1978016S10066 1978 3 SI MM FLEUR 1978-01-17 12:00:00 TS -12.1629 61.8589 reunion main 991 971 O____O___OP_O_ jtwc_sh SH131978 -11.8000 61.3000 -1 -12.7000 62.7000 99 9.90000 -11.8000 61.3000 TC 35 -11.8145 61.2946 2 -12.7000 62.7000 TC 45 5 222
1978016S10066 1978 3 SI MM FLEUR 1978-01-17 15:00:00 TS -12.3350 61.6633 main 971 942 P____P___PP_P_ SH131978 -11.9500 61.1850 -1 -12.9100 62.3801 99 -11.9500 61.1850 TC 35 -11.9547 61.1866 2 -12.9100 62.3801 TC 47 5 233
1978016S10066 1978 3 SI MM FLEUR 1978-01-17 18:00:00 TS -12.4600 61.4600 reunion main 942 922 O____O___OO_O_ jtwc_sh SH131978 -12.1000 61.1000 -1 -13.0000 62.0000 99 9.90000 -12.1000 61.1000 TC 35 -12.1000 61.1000 2 -13.0000 62.0000 TC 50 5 241
1978016S10066 1978 3 SI MM FLEUR 1978-01-17 21:00:00 TS -12.5543 61.2527 main 922 914 P____P___PP_P_ SH131978 -12.2425 61.0000 -1 -13.0175 61.6350 99 -12.2425 61.0000 TC 35 -12.2515 60.9936 2 -13.0175 61.6350 TC 50 4 250
1978016S10066 1978 3 SI MM FLEUR 1978-01-18 00:00:00 TS -12.6025 61.0599 reunion main 914 906 O____O___OP_O_ jtwc_sh SH131978 -12.4000 60.9000 -1 -12.9000 61.3000 99 9.90000 -12.4000 60.9000 TC 35 -12.4124 60.8997 2 -12.9000 61.3000 TC 50 3 264
1978016S10066 1978 3 SI MM FLEUR 1978-01-18 03:00:00 TS -12.5924 60.9072 main 906 902 P____P___PP_P_ SH131978 -12.5850 60.8075 -1 -12.5999 61.0574 99 -12.5850 60.8075 TC 35 -12.5921 60.8060 2 -12.5999 61.0574 TC 47 3 270
1978016S10066 1978 3 SI MM FLEUR 1978-01-18 06:00:00 TS -12.6000 60.7400 36 991 reunion main 898 880 O____O___OO_O_ jtwc_sh SH131978 -12.8000 60.7000 -1 -12.3000 60.8000 3 36 991 3.00000 3.00000 -12.8000 60.7000 TC 35 -12.8000 60.7000 2 -12.3000 60.8000 TC 45 991 4 255
1978016S10066 1978 3 SI MM FLEUR 1978-01-18 09:00:00 TS -12.6963 60.5016 main 880 852 P____P___PP_P_ SH131978 -13.0350 60.5575 -1 -12.1825 60.4225 3 -13.0350 60.5575 TC 35 -13.0463 60.5483 2 -12.1825 60.4225 TC 52 6 242
1978016S10066 1978 3 SI MM FLEUR 1978-01-18 12:00:00 TS -12.8640 60.2370 reunion main 848 820 O____O___OP_O_ jtwc_sh SH131978 -13.3000 60.4000 -1 -12.2000 60.0000 99 9.90000 -13.3000 60.4000 TC 35 -13.3201 60.3853 2 -12.2000 60.0000 TC 60 7 235
1978016S10066 1978 3 SI MM FLEUR 1978-01-18 15:00:00 TS -13.0688 59.9560 main 820 790 P____P___PP_P_ SH131978 -13.5925 60.2350 -1 -12.2751 59.5401 99 -13.5925 60.2350 TC 35 -13.6088 60.2296 2 -12.2751 59.5401 TC 62 7 226
1978016S10066 1978 3 SI MM FLEUR 1978-01-18 18:00:00 TS -13.3400 59.7400 reunion main 790 744 O____O___OO_O_ jtwc_sh SH131978 -13.9000 60.1000 -1 -12.5000 59.2000 99 9.90000 -13.9000 60.1000 TC 35 -13.9000 60.1000 2 -12.5000 59.2000 TC 65 7 207
1978016S10066 1978 3 SI MM FLEUR 1978-01-18 21:00:00 TS -13.6896 59.6277 main 744 711 P____P___PP_P_ SH131978 -14.2075 60.0349 -1 -12.9270 59.0279 99 -14.2075 60.0349 TC 35 -14.1790 60.0130 2 -12.9270 59.0279 TC 67 7 185
1978016S10066 1978 3 SI MM FLEUR 1978-01-19 00:00:00 TS -14.0515 59.6710 reunion main 704 689 O____O___OP_O_ jtwc_sh SH131978 -14.5000 60.0000 -1 -13.4000 59.2000 99 9.90000 -14.5000 60.0000 TC 35 -14.4574 59.9549 2 -13.4000 59.2000 TC 70 7 154
1978016S10066 1978 3 SI MM FLEUR 1978-01-19 03:00:00 TS -14.3359 59.9556 main 693 670 P____P___PP_P_ SH131978 -14.7575 59.9425 -1 -13.7162 59.9868 99 -14.7575 59.9425 TC 35 -14.7322 59.9193 2 -13.7162 59.9868 TC 67 8 136
1978016S10066 1978 3 SI MM FLEUR 1978-01-19 06:00:00 TS -14.6000 60.2200 52 976 reunion main 670 639 O____O___OO_O_ jtwc_sh SH131978 -15.0000 59.9000 -1 -14.0000 60.7000 3 52 976 4.00000 4.00000 -15.0000 59.9000 TC 35 -15.0000 59.9000 2 -14.0000 60.7000 TC 65 976 6 160
1978016S10066 1978 3 SI MM FLEUR 1978-01-19 09:00:00 TS -14.8974 60.1654 main 639 599 P____P___PP_P_ SH131978 -15.2500 59.8925 -1 -14.3648 60.5782 3 -15.2500 59.8925 TC 35 -15.2572 59.8855 2 -14.3648 60.5782 TC 72 6 199
1978016S10066 1978 3 SI MM FLEUR 1978-01-19 12:00:00 TS -15.1815 60.0170 reunion main 599 579 O____O___OP_O_ jtwc_sh SH131978 -15.5000 59.9000 -1 -14.7000 60.2000 99 9.90000 -15.5000 59.9000 TC 35 -15.5075 59.8849 2 -14.7000 60.2000 TC 80 6 200
1978016S10066 1978 3 SI MM FLEUR 1978-01-19 15:00:00 TS -15.4138 59.9633 main 579 554 P____P___PP_P_ SH131978 -15.7575 59.9000 -1 -14.9000 60.0624 99 -15.7575 59.9000 TC 35 -15.7541 59.8918 2 -14.9000 60.0624 TC 82 5 189
1978016S10066 1978 3 SI MM FLEUR 1978-01-19 18:00:00 TS -15.6400 59.9400 reunion main 554 524 O____O___OO_O_ jtwc_sh SH131978 -16.0000 59.9000 -1 -15.1000 60.0000 99 9.90000 -16.0000 59.9000 TC 35 -16.0000 59.9000 2 -15.1000 60.0000 TC 85 5 182
1978016S10066 1978 3 SI MM FLEUR 1978-01-19 21:00:00 TS -15.8899 59.9370 main 524 504 P____P___PP_P_ SH131978 -16.1925 59.9000 -1 -15.4275 59.9924 99 -16.1925 59.9000 TC 35 -16.2094 59.9000 2 -15.4275 59.9924 TC 87 5 0
1978016S10066 1978 3 SI MM FLEUR 1978-01-20 00:00:00 TS -16.1650 59.9400 reunion main 494 474 O____O___OP_O_ jtwc_sh SH131978 -16.4000 59.9000 -1 -15.8000 60.0000 99 9.90000 -16.4000 59.9000 TC 35 -16.4250 59.9000 2 -15.8000 60.0000 TC 90 6 183
1978016S10066 1978 3 SI MM FLEUR 1978-01-20 03:00:00 TS -16.4516 59.9170 main 464 436 P____P___PP_P_ SH131978 -16.6625 59.9000 -1 -16.1275 59.9426 99 -16.6625 59.9000 TC 50 -16.6782 59.9000 2 -16.1275 59.9426 TC 92 6 184
1978016S10066 1978 3 SI MM FLEUR 1978-01-20 06:00:00 TS -16.8000 59.9000 72 954 reunion main 436 398 O____O___OO_O_ jtwc_sh SH131978 -17.0000 59.9000 -1 -16.5000 59.9000 4 72 954 5.00000 5.00000 -17.0000 59.9000 TC 65 -17.0000 59.9000 4 -16.5000 59.9000 TC 95 954 8 178
1978016S10066 1978 3 SI MM FLEUR 1978-01-20 09:00:00 TS -17.2416 59.9310 main 398 361 P____P___PP_P_ SH131978 -17.4125 59.9000 -1 -16.9775 59.9498 4 -17.4125 59.9000 TC 65 -17.4280 59.9557 4 -16.9775 59.9498 TC 97 10 177
1978016S10066 1978 3 SI MM FLEUR 1978-01-20 12:00:00 TS -17.7449 59.9606 reunion main 361 321 O____O___OP_O_ jtwc_sh SH131978 -17.9000 59.9000 -1 -17.5000 60.0000 99 9.90000 -17.9000 59.9000 TC 65 -17.9247 60.0030 4 -17.5000 60.0000 TC 100 10 177
1978016S10066 1978 3 SI MM FLEUR 1978-01-20 15:00:00 TS -18.2627 59.9874 main 314 272 P____P___PP_P_ SH131978 -18.4424 59.9446 -1 -17.9848 60.0245 99 -18.4424 59.9446 TC 65 -18.4591 59.9990 4 -17.9848 60.0245 TC 102 11 183
1978016S10066 1978 3 SI MM FLEUR 1978-01-20 18:00:00 TS -18.8000 59.9000 reunion main 272 218 O____O___OO_O_ jtwc_sh SH131978 -19.0000 59.9000 -1 -18.5000 59.9000 99 9.90000 -19.0000 59.9000 TC 65 -19.0000 59.9000 4 -18.5000 59.9000 TC 105 11 199
1978016S10066 1978 3 SI MM FLEUR 1978-01-20 21:00:00 TS -19.3392 59.5893 main 218 156 P____P___PP_P_ SH131978 -19.5075 59.6601 -1 -19.1003 59.4956 99 -19.5075 59.6601 TC 65 -19.4803 59.6353 4 -19.1003 59.4956 TC 105 13 213
1978016S10066 1978 3 SI MM FLEUR 1978-01-21 00:00:00 TS -19.8727 59.1752 reunion main 152 104 O____O___OP_O_ jtwc_sh SH131978 -20.0000 59.3000 -1 -19.7000 59.0000 99 9.90000 -20.0000 59.3000 TC 65 -19.9634 59.2761 4 -19.7000 59.0000 TC 105 13 217
1978016S10066 1978 3 SI MM FLEUR 1978-01-21 03:00:00 TS -20.3640 58.7687 main 104 80 P____P___PP_P_ SH131978 -20.4851 58.8925 -1 -20.1925 58.5899 99 -20.4851 58.8925 TC 65 -20.4647 58.8787 4 -20.1925 58.5899 TC 107 12 215
1978016S10066 1978 3 SI MM FLEUR 1978-01-21 06:00:00 TS -20.8800 58.4200 82 941 reunion main 85 83 O____O___OO_O_ jtwc_sh SH131978 -21.0000 58.5000 -1 -20.7000 58.3000 4 82 941 5.50000 5.50000 -21.0000 58.5000 TC 65 -21.0000 58.5000 4 -20.7000 58.3000 TC 110 941 12 205
1978016S10066 1978 3 SI MM FLEUR 1978-01-21 09:00:00 TS -21.4827 58.2136 main 123 123 P____P___PP_P_ SH131978 -21.5773 58.2271 -1 -21.3349 58.2045 4 -21.5773 58.2271 TC 65 -21.5889 58.2047 4 -21.3349 58.2045 TC 100 13 195
1978016S10066 1978 3 SI MM FLEUR 1978-01-21 12:00:00 TS -22.1225 58.0679 reunion main 183 183 O____O___OP_O_ jtwc_sh SH131978 -22.2000 58.0000 -1 -22.0000 58.2000 99 9.90000 -22.2000 58.0000 TC 65 -22.2123 57.9397 4 -22.0000 58.2000 TC 90 13 192
1978016S10066 1978 3 SI MM FLEUR 1978-01-21 15:00:00 TS -22.7568 57.9216 main 257 257 P____P___PP_P_ SH131978 -22.8500 57.7425 -1 -22.6148 58.2092 99 -22.8500 57.7425 TC 65 -22.8546 57.7048 4 -22.6148 58.2092 TC 82 13 193
1978016S10066 1978 3 SI MM FLEUR 1978-01-21 18:00:00 TS -23.3800 57.7400 reunion main 305 305 O____O___OO_O_ jtwc_sh SH131978 -23.5000 57.5000 -1 -23.2000 58.1000 99 9.90000 -23.5000 57.5000 TC 65 -23.5000 57.5000 4 -23.2000 58.1000 TC 75 13 200
1978016S10066 1978 3 SI MM FLEUR 1978-01-21 21:00:00 TS -23.9580 57.4536 main 348 343 P____P___PP_P_ SH131978 -24.1000 57.2774 -1 -23.7427 57.7101 99 -24.1000 57.2774 TC 50 -24.1046 57.2927 4 -23.7427 57.7101 TC 70 13 205
1978016S10066 1978 3 SI MM FLEUR 1978-01-22 00:00:00 TS -24.5425 57.1435 reunion main 378 378 O____O___OP_O_ jtwc_sh SH131978 -24.7000 57.1000 -1 -24.3000 57.2000 99 9.90000 -24.7000 57.1000 TC 35 -24.7124 57.1177 4 -24.3000 57.2000 TC 65 13 204
1978016S10066 1978 3 SI MM FLEUR 1978-01-22 03:00:00 TS -25.1759 56.8463 main 442 442 P____P___PP_P_ SH131978 -25.3275 56.9699 -1 -24.9428 56.6538 99 -25.3275 56.9699 TC 35 -25.3391 56.9838 4 -24.9428 56.6538 TC 60 14 199
1978016S10066 1978 3 SI MM FLEUR 1978-01-22 06:00:00 MX -25.8400 56.6600 44 984 reunion main 504 504 O____O___OO_O_ jtwc_sh SH131978 -26.0000 56.9000 -1 -25.6000 56.3000 3 44 984 3.50000 3.50000 -26.0000 56.9000 TC 35 -26.0000 56.9000 2 -25.6000 56.3000 EX 55 984 14 186
1978016S10066 1978 3 SI MM FLEUR 1978-01-22 09:00:00 MX -26.5494 56.6851 main 580 580 P____P___PP_P_ SH131978 -26.7350 56.8774 -1 -26.2674 56.4083 3 -26.7350 56.8774 TC 35 -26.7423 56.8539 2 -26.2674 56.4083 EX 50 14 174
1978016S10066 1978 3 SI MM FLEUR 1978-01-22 12:00:00 TS -27.2230 56.8119 reunion main 659 659 O____O___OP_O_ jtwc_sh SH131978 -27.5000 56.9000 -1 -26.8000 56.7000 99 9.90000 -27.5000 56.9000 TC 35 -27.5148 56.8596 2 -26.8000 56.7000 TC 45 12 172
1978016S10066 1978 3 SI MM FLEUR 1978-01-22 15:00:00 TS -27.7559 56.8846 main 727 727 P____P___PP_P_ SH131978 -28.2725 56.9350 -1 -26.9773 56.8213 99 -28.2725 56.9350 TC 35 -28.2799 56.9105 2 -26.9773 56.8213 TC 40 11 171
1978016S10066 1978 3 SI MM FLEUR 1978-01-22 18:00:00 TS -28.2800 57.0000 reunion main 783 783 O____O___OO_O_ jtwc_sh SH131978 -29.0000 57.0000 -1 -27.2000 57.0000 99 9.90000 -29.0000 57.0000 TC 35 -29.0000 57.0000 2 -27.2000 57.0000 TC 35 12 167
1978016S10066 1978 3 SI MM FLEUR 1978-01-22 21:00:00 TS -28.9465 57.1998 main 853 853 P____P___PP_P_ SH131978 -29.6299 57.0778 -1 -27.9127 57.3613 99 -29.6299 57.0778 TC 35 -29.6473 57.1210 2 -27.9127 57.3613 TC 35 14 163
1978016S10066 1978 3 SI MM FLEUR 1978-01-23 00:00:00 TS -29.6065 57.4532 reunion main 935 935 O____O___OP_O_ jtwc_sh SH131978 -30.2000 57.2000 -1 -28.7000 57.8000 99 9.90000 -30.2000 57.2000 TC 35 -30.2326 57.2662 2 -28.7000 57.8000 TC 35 13 159
1978016S10066 1978 3 SI MM FLEUR 1978-01-23 03:00:00 TS -30.1514 57.7236 main 1005 1005 P____P___PP_P_ SH131978 -30.7526 57.3819 -1 -29.2375 58.2130 99 -30.7526 57.3819 TC 35 -30.7767 57.4284 2 -29.2375 58.2130 TC 35 11 155
1978016S10066 1978 3 SI MM FLEUR 1978-01-23 06:00:00 MX -30.6200 58.0000 reunion main 1055 O____O___OO_O_ jtwc_sh SH131978 -31.3000 57.6000 -1 -29.6000 58.6000 3 9.90000 -31.3000 57.6000 TC 35 -31.3000 57.6000 2 -29.6000 58.6000 EX 35 11 153

IBTrACS Databaseについて

本データベースは、米国NOAAが公開する1842年以降の世界の熱帯低気圧のベストトラックデータアーカイブInternational Best Track Archive for Climate Stewardship (IBTrACS)を、ウェブで閲覧しやすい形式に変換したものです。

最終更新日:2021-10-21